Betty L — WDF8115 — position and weather

sailwx.info

Track history (hours):
 
Tides and Currents Weather Stations Pressure Air Temp Water Temp Dewpoint Dewpoint Depression Visibility Wind Speed Wind Dir Waves Ship Positions

Betty L

Owner: J.A.M. Marine Services, LLC, Houston, TX. More information available from US FCC via Universal Licensing System and Coast Guard Vessel Documentation Center.

Last reported at 2018-Jun-21 22:49 UTC. Time now 2018-Jun-22 05:29 UTC.
Position N 29°45' W 095°06'.

Length 92 m.

Type: Other ship. MMSI: 367491540.

Date/timePositionNaut miles runAvg speedWind from/ knotsBaromVisibWave heightAir tempDewpointWater temp
2018-Jun-21 22:49N 29°45' W 095°06'3 3.0
2018-Jun-21 21:42N 29°44' W 095°02'2 2.9
2018-Jun-21 21:04N 29°42' W 095°01'0 2.9
2018-Jun-21 20:59N 29°42' W 095°01'2 3.4
2018-Jun-21 20:30N 29°41' W 094°59'3 5.0
2018-Jun-21 19:59N 29°39' W 094°58'3 6.2
2018-Jun-21 19:29N 29°36' W 094°57'4 7.1
2018-Jun-21 18:58N 29°33' W 094°54'3 7.3
2018-Jun-21 18:30N 29°30' W 094°52'4 7.7
2018-Jun-21 17:57N 29°26' W 094°50'4 8.0
2018-Jun-21 17:31N 29°23' W 094°49'4 7.5
2018-Jun-21 17:00N 29°20' W 094°47'1 2.4
2018-Jun-21 16:27N 29°19' W 094°48'0 0.0
2018-Jun-21 15:51N 29°19' W 094°48'0 0.0
2018-Jun-21 15:27N 29°19' W 094°48'0 0.0
2018-Jun-21 14:57N 29°19' W 094°48'0 0.0
2018-Jun-21 14:27N 29°19' W 094°48'0 0.0
2018-Jun-21 14:00N 29°19' W 094°48'0 0.0
2018-Jun-21 13:27N 29°19' W 094°48'0 0.0
2018-Jun-21 12:57N 29°19' W 094°48'0 0.0
2018-Jun-21 12:30N 29°19' W 094°48'0 0.0
2018-Jun-21 12:00N 29°19' W 094°48'0 0.0
2018-Jun-21 11:30N 29°19' W 094°48'0 0.0
2018-Jun-21 11:00N 29°19' W 094°48'0 0.0
2018-Jun-21 10:30N 29°19' W 094°48'0 0.0
2018-Jun-21 10:00N 29°19' W 094°48'0 0.0
2018-Jun-21 09:30N 29°19' W 094°48'0 0.0
2018-Jun-21 08:51N 29°19' W 094°48'2 4.6
2018-Jun-21 08:30N 29°20' W 094°46'1 2.3
2018-Jun-21 08:00N 29°21' W 094°46'0 0.0
2018-Jun-21 05:45N 29°21' W 094°46'0 0.0
2018-Jun-21 04:24N 29°21' W 094°46'0 0.1
2018-Jun-21 04:00N 29°21' W 094°46'2 4.5
2018-Jun-21 03:31N 29°19' W 094°47'1 1.0
2018-Jun-21 02:54N 29°19' W 094°48'0 0.0
2018-Jun-21 02:30N 29°19' W 094°48'0 0.0
2018-Jun-21 02:00N 29°19' W 094°48'0 0.0
2018-Jun-21 01:30N 29°19' W 094°48'2 3.8
2018-Jun-21 01:00N 29°21' W 094°47'21 7.4
2018-Jun-20 22:14N 29°39' W 094°58'3 7.0
2018-Jun-20 21:51N 29°41' W 094°59'  
2018-Jun-16 22:42N 29°42' W 095°01'1 4.3
2018-Jun-16 22:28N 29°42' W 095°00'3 6.0
2018-Jun-16 22:00N 29°40' W 094°58'3 6.3
2018-Jun-16 21:30N 29°37' W 094°57'3 5.6
2018-Jun-16 20:58N 29°34' W 094°55'4 6.4
2018-Jun-16 20:17N 29°30' W 094°53'3 6.5
2018-Jun-16 19:51N 29°28' W 094°51'3 6.8
2018-Jun-16 19:28N 29°26' W 094°50'3 7.0
2018-Jun-16 19:01N 29°23' W 094°48'3 6.3
2018-Jun-16 18:30N 29°20' W 094°47'1 2.5
2018-Jun-16 17:58N 29°19' W 094°48'2 4.1
2018-Jun-16 17:29N 29°20' W 094°46'1 2.0
2018-Jun-16 16:58N 29°21' W 094°45'0 0.0
2018-Jun-16 15:52N 29°21' W 094°45'0 0.0
2018-Jun-16 15:19N 29°21' W 094°45'0 0.0
2018-Jun-16 14:58N 29°21' W 094°45'0 0.0
2018-Jun-16 14:25N 29°21' W 094°45'0 0.0
2018-Jun-16 13:52N 29°21' W 094°45'0 0.0
2018-Jun-16 13:22N 29°21' W 094°45'0 0.0
2018-Jun-16 12:49N 29°21' W 094°45'0 0.0
2018-Jun-16 12:22N 29°21' W 094°45'3 0.9
2018-Jun-16 08:54N 29°19' W 094°48'0 0.1
2018-Jun-16 08:18N 29°19' W 094°48'1 4.6
2018-Jun-16 08:00N 29°20' W 094°47'2 4.7
2018-Jun-16 07:29N 29°21' W 094°44'0 0.0
2018-Jun-16 03:54N 29°21' W 094°44'2 5.8
2018-Jun-16 03:30N 29°20' W 094°46'2 3.5
2018-Jun-16 03:00N 29°19' W 094°48'0 0.1
2018-Jun-16 02:25N 29°19' W 094°48'1 1.8
2018-Jun-16 02:00N 29°19' W 094°47'2 1.8
2018-Jun-16 00:39N 29°21' W 094°45'0 0.2
2018-Jun-16 00:30N 29°21' W 094°45'0 0.2
2018-Jun-15 23:57N 29°21' W 094°45'0 0.0
2018-Jun-15 22:03N 29°21' W 094°45'0 0.1
2018-Jun-15 21:57N 29°21' W 094°45'0 0.0
2018-Jun-15 20:24N 29°21' W 094°45'1 2.2
2018-Jun-15 20:00N 29°21' W 094°46'2 3.6
2018-Jun-15 19:23N 29°19' W 094°48'0 0.2
2018-Jun-15 18:53N 29°19' W 094°48'0 0.0
2018-Jun-15 18:14N 29°19' W 094°48'0 0.0
2018-Jun-15 17:50N 29°19' W 094°48'0 0.0
2018-Jun-15 17:29N 29°19' W 094°48'0 0.0
2018-Jun-15 16:53N 29°19' W 094°48'0 0.0
2018-Jun-15 16:29N 29°19' W 094°48'0 0.0
2018-Jun-15 15:59N 29°19' W 094°48'0 0.0
2018-Jun-15 14:59N 29°19' W 094°48'0 0.0
2018-Jun-15 14:29N 29°19' W 094°48'0 0.0
2018-Jun-15 13:43N 29°19' W 094°48'0 0.0
2018-Jun-15 13:28N 29°19' W 094°48'0 0.0
2018-Jun-15 11:41N 29°19' W 094°48'0 0.0
2018-Jun-15 11:11N 29°19' W 094°48'0 0.0
2018-Jun-15 10:53N 29°19' W 094°48'0 0.0
2018-Jun-15 10:29N 29°19' W 094°48'0 0.0
2018-Jun-15 09:44N 29°19' W 094°48'0 0.0
2018-Jun-15 09:25N 29°19' W 094°48'0 0.0
2018-Jun-15 08:50N 29°19' W 094°48'0 0.0
2018-Jun-15 08:26N 29°19' W 094°48'0 0.0
2018-Jun-15 07:59N 29°19' W 094°48'0 0.0
2018-Jun-15 07:22N 29°19' W 094°48'0 0.0
2018-Jun-15 06:53N 29°19' W 094°48'0 0.0
2018-Jun-15 03:40N 29°19' W 094°48'0 0.0
2018-Jun-15 03:16N 29°19' W 094°48'0 0.0
2018-Jun-15 00:40N 29°19' W 094°48'0 0.0
2018-Jun-15 00:04N 29°19' W 094°48'0 0.0
2018-Jun-14 23:58N 29°19' W 094°48'0 0.0
2018-Jun-14 23:19N 29°19' W 094°48'0 0.0
2018-Jun-14 21:46N 29°19' W 094°48'0 0.2
2018-Jun-14 21:28N 29°19' W 094°48'0 0.8
2018-Jun-14 21:01N 29°19' W 094°47'3 5.5
2018-Jun-14 20:29N 29°21' W 094°45'0 0.0
2018-Jun-14 19:17N 29°21' W 094°45'0 0.0
2018-Jun-14 17:20N 29°21' W 094°45'1 2.6
2018-Jun-14 16:58N 29°21' W 094°46'2 4.2
2018-Jun-14 16:25N 29°19' W 094°48'0 0.0
2018-Jun-14 15:58N 29°19' W 094°48'0 0.0
2018-Jun-14 15:28N 29°19' W 094°48'0 0.0
2018-Jun-14 14:43N 29°19' W 094°48'0 0.0
2018-Jun-14 14:22N 29°19' W 094°48'0 0.0
2018-Jun-14 13:58N 29°19' W 094°48'0 0.0
2018-Jun-14 12:58N 29°19' W 094°48'0 0.0
2018-Jun-14 12:22N 29°19' W 094°48'0 0.0
2018-Jun-14 11:55N 29°19' W 094°48'0 0.0
2018-Jun-14 10:46N 29°19' W 094°48'0 0.0
2018-Jun-14 10:16N 29°19' W 094°48'0 0.0
2018-Jun-14 09:46N 29°19' W 094°48'0 0.0
2018-Jun-14 09:28N 29°19' W 094°48'0 0.0
2018-Jun-14 08:58N 29°19' W 094°48'0 0.0
2018-Jun-14 08:16N 29°19' W 094°48'0 0.0
2018-Jun-14 07:58N 29°19' W 094°48'0 0.1
2018-Jun-14 07:30N 29°19' W 094°48'3 6.1
2018-Jun-14 06:59N 29°21' W 094°45'1 0.9
2018-Jun-14 06:16N 29°21' W 094°44'0 0.0
2018-Jun-14 03:14N 29°21' W 094°44'1 3.9
2018-Jun-14 02:57N 29°21' W 094°45'3 3.8
2018-Jun-14 02:11N 29°19' W 094°48'0 0.2
2018-Jun-14 01:53N 29°19' W 094°48'1 2.6
2018-Jun-14 01:25N 29°20' W 094°47'2 0.6
2018-Jun-13 21:30N 29°21' W 094°44'2 4.1
2018-Jun-13 21:00N 29°20' W 094°46'2 2.9
2018-Jun-13 20:26N 29°19' W 094°48'0 0.0
2018-Jun-13 19:59N 29°19' W 094°48'0 0.0
2018-Jun-13 19:29N 29°19' W 094°48'0 0.0
2018-Jun-13 18:59N 29°19' W 094°48'0 0.0
2018-Jun-13 18:29N 29°19' W 094°48'0 0.0
2018-Jun-13 17:59N 29°19' W 094°48'1 2.6
2018-Jun-13 17:30N 29°20' W 094°47'2 0.3
2018-Jun-13 11:12N 29°21' W 094°45'1 5.2
2018-Jun-13 10:59N 29°21' W 094°46'2 5.1
2018-Jun-13 10:30N 29°19' W 094°48'0 0.1
2018-Jun-13 09:53N 29°19' W 094°48'0 0.0
2018-Jun-13 09:26N 29°19' W 094°48'0 0.0
2018-Jun-13 08:59N 29°19' W 094°48'0 0.0
2018-Jun-13 08:29N 29°19' W 094°48'0 0.0
2018-Jun-13 07:59N 29°19' W 094°48'0 0.0
2018-Jun-13 07:29N 29°19' W 094°48'0 0.0
2018-Jun-13 06:59N 29°19' W 094°48'0 0.0
2018-Jun-13 06:29N 29°19' W 094°48'0 0.0
2018-Jun-13 05:59N 29°19' W 094°48'0 0.0
2018-Jun-13 04:41N 29°19' W 094°48'0 0.1
2018-Jun-13 04:29N 29°19' W 094°48'2 4.0
2018-Jun-13 04:00N 29°21' W 094°47'4 8.0
2018-Jun-13 03:29N 29°24' W 094°49'4 7.6
2018-Jun-13 03:00N 29°28' W 094°51'4 7.0
2018-Jun-13 02:28N 29°31' W 094°53'3 6.2
2018-Jun-13 02:00N 29°33' W 094°55'3 5.9
2018-Jun-13 01:30N 29°36' W 094°57'6 6.2
2018-Jun-13 00:31N 29°41' W 094°59'0 6.2
2018-Jun-13 00:30N 29°41' W 094°59'2 1.2
2018-Jun-12 23:01N 29°42' W 095°01'0 5.8
2018-Jun-12 22:59N 29°42' W 095°01'3 6.4
2018-Jun-12 22:30N 29°40' W 094°58'3 6.5
2018-Jun-12 22:00N 29°37' W 094°57'3 6.8
2018-Jun-12 21:30N 29°34' W 094°55'3 6.9
2018-Jun-12 21:00N 29°31' W 094°53'4 6.8
2018-Jun-12 20:28N 29°28' W 094°51'3 6.6
2018-Jun-12 19:59N 29°25' W 094°50'3 6.5
2018-Jun-12 19:30N 29°22' W 094°48'3 5.9
2018-Jun-12 19:00N 29°19' W 094°47'1 0.3
2018-Jun-12 15:09N 29°19' W 094°48'0 0.2
2018-Jun-12 14:54N 29°19' W 094°48'0 0.0
2018-Jun-12 13:00N 29°19' W 094°48'0 0.0
2018-Jun-12 11:42N 29°19' W 094°48'0 0.0
2018-Jun-12 02:36N 29°19' W 094°48'0 0.0
2018-Jun-12 02:24N 29°19' W 094°48'0 0.0
2018-Jun-12 01:48N 29°19' W 094°48'0 0.0
2018-Jun-12 01:27N 29°19' W 094°48'0 0.0
2018-Jun-12 00:39N 29°19' W 094°48'0 0.1
2018-Jun-12 00:30N 29°19' W 094°48'0 0.0
2018-Jun-12 00:00N 29°19' W 094°48'0 0.0
2018-Jun-11 23:30N 29°19' W 094°48'0 0.0
2018-Jun-11 23:00N 29°19' W 094°48'  
Track history (hours):
 
Tides and Currents Weather Stations Pressure Air Temp Water Temp Dewpoint Dewpoint Depression Visibility Wind Speed Wind Dir Waves Ship Positions

Betty L

Owner: J.A.M. Marine Services, LLC, Houston, TX. More information available from US FCC via Universal Licensing System and Coast Guard Vessel Documentation Center.

Last reported at 2018-Jun-21 22:49 UTC. Time now 2018-Jun-22 05:29 UTC.
Position N 29°45' W 095°06'.

Length 92 m.

Type: Other ship. MMSI: 367491540.

Date/timePositionNaut miles runAvg speedWind from/ knotsBaromVisibWave heightAir tempDewpointWater temp
2018-Jun-21 22:49N 29°45' W 095°06'3 3.0
2018-Jun-21 21:42N 29°44' W 095°02'2 2.9
2018-Jun-21 21:04N 29°42' W 095°01'0 2.9
2018-Jun-21 20:59N 29°42' W 095°01'2 3.4
2018-Jun-21 20:30N 29°41' W 094°59'3 5.0
2018-Jun-21 19:59N 29°39' W 094°58'3 6.2
2018-Jun-21 19:29N 29°36' W 094°57'4 7.1
2018-Jun-21 18:58N 29°33' W 094°54'3 7.3
2018-Jun-21 18:30N 29°30' W 094°52'4 7.7
2018-Jun-21 17:57N 29°26' W 094°50'4 8.0
2018-Jun-21 17:31N 29°23' W 094°49'4 7.5
2018-Jun-21 17:00N 29°20' W 094°47'1 2.4
2018-Jun-21 16:27N 29°19' W 094°48'0 0.0
2018-Jun-21 15:51N 29°19' W 094°48'0 0.0
2018-Jun-21 15:27N 29°19' W 094°48'0 0.0
2018-Jun-21 14:57N 29°19' W 094°48'0 0.0
2018-Jun-21 14:27N 29°19' W 094°48'0 0.0
2018-Jun-21 14:00N 29°19' W 094°48'0 0.0
2018-Jun-21 13:27N 29°19' W 094°48'0 0.0
2018-Jun-21 12:57N 29°19' W 094°48'0 0.0
2018-Jun-21 12:30N 29°19' W 094°48'0 0.0
2018-Jun-21 12:00N 29°19' W 094°48'0 0.0
2018-Jun-21 11:30N 29°19' W 094°48'0 0.0
2018-Jun-21 11:00N 29°19' W 094°48'0 0.0
2018-Jun-21 10:30N 29°19' W 094°48'0 0.0
2018-Jun-21 10:00N 29°19' W 094°48'0 0.0
2018-Jun-21 09:30N 29°19' W 094°48'0 0.0
2018-Jun-21 08:51N 29°19' W 094°48'2 4.6
2018-Jun-21 08:30N 29°20' W 094°46'1 2.3
2018-Jun-21 08:00N 29°21' W 094°46'0 0.0
2018-Jun-21 05:45N 29°21' W 094°46'0 0.0
2018-Jun-21 04:24N 29°21' W 094°46'0 0.1
2018-Jun-21 04:00N 29°21' W 094°46'2 4.5
2018-Jun-21 03:31N 29°19' W 094°47'1 1.0
2018-Jun-21 02:54N 29°19' W 094°48'0 0.0
2018-Jun-21 02:30N 29°19' W 094°48'0 0.0
2018-Jun-21 02:00N 29°19' W 094°48'0 0.0
2018-Jun-21 01:30N 29°19' W 094°48'2 3.8
2018-Jun-21 01:00N 29°21' W 094°47'21 7.4
2018-Jun-20 22:14N 29°39' W 094°58'3 7.0
2018-Jun-20 21:51N 29°41' W 094°59'  
2018-Jun-16 22:42N 29°42' W 095°01'1 4.3
2018-Jun-16 22:28N 29°42' W 095°00'3 6.0
2018-Jun-16 22:00N 29°40' W 094°58'3 6.3
2018-Jun-16 21:30N 29°37' W 094°57'3 5.6
2018-Jun-16 20:58N 29°34' W 094°55'4 6.4
2018-Jun-16 20:17N 29°30' W 094°53'3 6.5
2018-Jun-16 19:51N 29°28' W 094°51'3 6.8
2018-Jun-16 19:28N 29°26' W 094°50'3 7.0
2018-Jun-16 19:01N 29°23' W 094°48'3 6.3
2018-Jun-16 18:30N 29°20' W 094°47'1 2.5
2018-Jun-16 17:58N 29°19' W 094°48'2 4.1
2018-Jun-16 17:29N 29°20' W 094°46'1 2.0
2018-Jun-16 16:58N 29°21' W 094°45'0 0.0
2018-Jun-16 15:52N 29°21' W 094°45'0 0.0
2018-Jun-16 15:19N 29°21' W 094°45'0 0.0
2018-Jun-16 14:58N 29°21' W 094°45'0 0.0
2018-Jun-16 14:25N 29°21' W 094°45'0 0.0
2018-Jun-16 13:52N 29°21' W 094°45'0 0.0
2018-Jun-16 13:22N 29°21' W 094°45'0 0.0
2018-Jun-16 12:49N 29°21' W 094°45'0 0.0
2018-Jun-16 12:22N 29°21' W 094°45'3 0.9
2018-Jun-16 08:54N 29°19' W 094°48'0 0.1
2018-Jun-16 08:18N 29°19' W 094°48'1 4.6
2018-Jun-16 08:00N 29°20' W 094°47'2 4.7
2018-Jun-16 07:29N 29°21' W 094°44'0 0.0
2018-Jun-16 03:54N 29°21' W 094°44'2 5.8
2018-Jun-16 03:30N 29°20' W 094°46'2 3.5
2018-Jun-16 03:00N 29°19' W 094°48'0 0.1
2018-Jun-16 02:25N 29°19' W 094°48'1 1.8
2018-Jun-16 02:00N 29°19' W 094°47'2 1.8
2018-Jun-16 00:39N 29°21' W 094°45'0 0.2
2018-Jun-16 00:30N 29°21' W 094°45'0 0.2
2018-Jun-15 23:57N 29°21' W 094°45'0 0.0
2018-Jun-15 22:03N 29°21' W 094°45'0 0.1
2018-Jun-15 21:57N 29°21' W 094°45'0 0.0
2018-Jun-15 20:24N 29°21' W 094°45'1 2.2
2018-Jun-15 20:00N 29°21' W 094°46'2 3.6
2018-Jun-15 19:23N 29°19' W 094°48'0 0.2
2018-Jun-15 18:53N 29°19' W 094°48'0 0.0
2018-Jun-15 18:14N 29°19' W 094°48'0 0.0
2018-Jun-15 17:50N 29°19' W 094°48'0 0.0
2018-Jun-15 17:29N 29°19' W 094°48'0 0.0
2018-Jun-15 16:53N 29°19' W 094°48'0 0.0
2018-Jun-15 16:29N 29°19' W 094°48'0 0.0
2018-Jun-15 15:59N 29°19' W 094°48'0 0.0
2018-Jun-15 14:59N 29°19' W 094°48'0 0.0
2018-Jun-15 14:29N 29°19' W 094°48'0 0.0
2018-Jun-15 13:43N 29°19' W 094°48'0 0.0
2018-Jun-15 13:28N 29°19' W 094°48'0 0.0
2018-Jun-15 11:41N 29°19' W 094°48'0 0.0
2018-Jun-15 11:11N 29°19' W 094°48'0 0.0
2018-Jun-15 10:53N 29°19' W 094°48'0 0.0
2018-Jun-15 10:29N 29°19' W 094°48'0 0.0
2018-Jun-15 09:44N 29°19' W 094°48'0 0.0
2018-Jun-15 09:25N 29°19' W 094°48'0 0.0
2018-Jun-15 08:50N 29°19' W 094°48'0 0.0
2018-Jun-15 08:26N 29°19' W 094°48'0 0.0
2018-Jun-15 07:59N 29°19' W 094°48'0 0.0
2018-Jun-15 07:22N 29°19' W 094°48'0 0.0
2018-Jun-15 06:53N 29°19' W 094°48'0 0.0
2018-Jun-15 03:40N 29°19' W 094°48'0 0.0
2018-Jun-15 03:16N 29°19' W 094°48'0 0.0
2018-Jun-15 00:40N 29°19' W 094°48'0 0.0
2018-Jun-15 00:04N 29°19' W 094°48'0 0.0
2018-Jun-14 23:58N 29°19' W 094°48'0 0.0
2018-Jun-14 23:19N 29°19' W 094°48'0 0.0
2018-Jun-14 21:46N 29°19' W 094°48'0 0.2
2018-Jun-14 21:28N 29°19' W 094°48'0 0.8
2018-Jun-14 21:01N 29°19' W 094°47'3 5.5
2018-Jun-14 20:29N 29°21' W 094°45'0 0.0
2018-Jun-14 19:17N 29°21' W 094°45'0 0.0
2018-Jun-14 17:20N 29°21' W 094°45'1 2.6
2018-Jun-14 16:58N 29°21' W 094°46'2 4.2
2018-Jun-14 16:25N 29°19' W 094°48'0 0.0
2018-Jun-14 15:58N 29°19' W 094°48'0 0.0
2018-Jun-14 15:28N 29°19' W 094°48'0 0.0
2018-Jun-14 14:43N 29°19' W 094°48'0 0.0
2018-Jun-14 14:22N 29°19' W 094°48'0 0.0
2018-Jun-14 13:58N 29°19' W 094°48'0 0.0
2018-Jun-14 12:58N 29°19' W 094°48'0 0.0
2018-Jun-14 12:22N 29°19' W 094°48'0 0.0
2018-Jun-14 11:55N 29°19' W 094°48'0 0.0
2018-Jun-14 10:46N 29°19' W 094°48'0 0.0
2018-Jun-14 10:16N 29°19' W 094°48'0 0.0
2018-Jun-14 09:46N 29°19' W 094°48'0 0.0
2018-Jun-14 09:28N 29°19' W 094°48'0 0.0
2018-Jun-14 08:58N 29°19' W 094°48'0 0.0
2018-Jun-14 08:16N 29°19' W 094°48'0 0.0
2018-Jun-14 07:58N 29°19' W 094°48'0 0.1
2018-Jun-14 07:30N 29°19' W 094°48'3 6.1
2018-Jun-14 06:59N 29°21' W 094°45'1 0.9
2018-Jun-14 06:16N 29°21' W 094°44'0 0.0
2018-Jun-14 03:14N 29°21' W 094°44'1 3.9
2018-Jun-14 02:57N 29°21' W 094°45'3 3.8
2018-Jun-14 02:11N 29°19' W 094°48'0 0.2
2018-Jun-14 01:53N 29°19' W 094°48'1 2.6
2018-Jun-14 01:25N 29°20' W 094°47'2 0.6
2018-Jun-13 21:30N 29°21' W 094°44'2 4.1
2018-Jun-13 21:00N 29°20' W 094°46'2 2.9
2018-Jun-13 20:26N 29°19' W 094°48'0 0.0
2018-Jun-13 19:59N 29°19' W 094°48'0 0.0
2018-Jun-13 19:29N 29°19' W 094°48'0 0.0
2018-Jun-13 18:59N 29°19' W 094°48'0 0.0
2018-Jun-13 18:29N 29°19' W 094°48'0 0.0
2018-Jun-13 17:59N 29°19' W 094°48'1 2.6
2018-Jun-13 17:30N 29°20' W 094°47'2 0.3
2018-Jun-13 11:12N 29°21' W 094°45'1 5.2
2018-Jun-13 10:59N 29°21' W 094°46'2 5.1
2018-Jun-13 10:30N 29°19' W 094°48'0 0.1
2018-Jun-13 09:53N 29°19' W 094°48'0 0.0
2018-Jun-13 09:26N 29°19' W 094°48'0 0.0
2018-Jun-13 08:59N 29°19' W 094°48'0 0.0
2018-Jun-13 08:29N 29°19' W 094°48'0 0.0
2018-Jun-13 07:59N 29°19' W 094°48'0 0.0
2018-Jun-13 07:29N 29°19' W 094°48'0 0.0
2018-Jun-13 06:59N 29°19' W 094°48'0 0.0
2018-Jun-13 06:29N 29°19' W 094°48'0 0.0
2018-Jun-13 05:59N 29°19' W 094°48'0 0.0
2018-Jun-13 04:41N 29°19' W 094°48'0 0.1
2018-Jun-13 04:29N 29°19' W 094°48'2 4.0
2018-Jun-13 04:00N 29°21' W 094°47'4 8.0
2018-Jun-13 03:29N 29°24' W 094°49'4 7.6
2018-Jun-13 03:00N 29°28' W 094°51'4 7.0
2018-Jun-13 02:28N 29°31' W 094°53'3 6.2
2018-Jun-13 02:00N 29°33' W 094°55'3 5.9
2018-Jun-13 01:30N 29°36' W 094°57'6 6.2
2018-Jun-13 00:31N 29°41' W 094°59'0 6.2
2018-Jun-13 00:30N 29°41' W 094°59'2 1.2
2018-Jun-12 23:01N 29°42' W 095°01'0 5.8
2018-Jun-12 22:59N 29°42' W 095°01'3 6.4
2018-Jun-12 22:30N 29°40' W 094°58'3 6.5
2018-Jun-12 22:00N 29°37' W 094°57'3 6.8
2018-Jun-12 21:30N 29°34' W 094°55'3 6.9
2018-Jun-12 21:00N 29°31' W 094°53'4 6.8
2018-Jun-12 20:28N 29°28' W 094°51'3 6.6
2018-Jun-12 19:59N 29°25' W 094°50'3 6.5
2018-Jun-12 19:30N 29°22' W 094°48'3 5.9
2018-Jun-12 19:00N 29°19' W 094°47'1 0.3
2018-Jun-12 15:09N 29°19' W 094°48'0 0.2
2018-Jun-12 14:54N 29°19' W 094°48'0 0.0
2018-Jun-12 13:00N 29°19' W 094°48'0 0.0
2018-Jun-12 11:42N 29°19' W 094°48'0 0.0
2018-Jun-12 02:36N 29°19' W 094°48'0 0.0
2018-Jun-12 02:24N 29°19' W 094°48'0 0.0
2018-Jun-12 01:48N 29°19' W 094°48'0 0.0
2018-Jun-12 01:27N 29°19' W 094°48'0 0.0
2018-Jun-12 00:39N 29°19' W 094°48'0 0.1
2018-Jun-12 00:30N 29°19' W 094°48'0 0.0
2018-Jun-12 00:00N 29°19' W 094°48'0 0.0
2018-Jun-11 23:30N 29°19' W 094°48'0 0.0
2018-Jun-11 23:00N 29°19' W 094°48'  

Dump ship's entire track history